createdAt,value
2022-10-30T00:02:03.954Z,26.98
2022-10-30T00:05:03.292Z,30.63
2022-10-30T00:20:55.042Z,26.52
2022-10-30T00:27:17.242Z,26.67
2022-10-30T00:34:57.278Z,30.02
2022-10-30T00:37:48.971Z,28.85
2022-10-30T00:41:20.582Z,33.65
2022-10-30T01:45:20.059Z,45.45
2022-10-30T01:48:01.375Z,61.03
2022-10-30T01:50:54.895Z,40.10
2022-10-30T01:53:48.792Z,42.17
2022-10-30T01:56:30.507Z,41.00
2022-10-30T01:59:08.264Z,39.90
2022-10-30T02:01:37.887Z,41.47
2022-10-30T02:04:06.490Z,47.25
2022-10-30T02:06:40.796Z,51.67
2022-10-30T02:09:10.927Z,62.70
2022-10-30T02:11:57.957Z,67.80
2022-10-30T02:14:40.255Z,60.55
2022-10-30T02:17:15.195Z,43.50
2022-10-30T02:19:53.696Z,33.42
2022-10-30T02:22:27.107Z,36.35
2022-10-30T02:24:54.670Z,42.60
2022-10-30T02:27:27.175Z,48.10
2022-10-30T02:29:55.259Z,40.83
2022-10-30T02:32:22.500Z,52.83
2022-10-30T02:34:50.488Z,55.78
2022-10-30T02:37:23.255Z,58.80
2022-10-30T02:39:53.702Z,47.28
2022-10-30T02:42:24.189Z,38.85
2022-10-30T02:44:53.475Z,35.65
2022-10-30T02:47:21.486Z,51.75
2022-10-30T02:49:49.120Z,55.20
2022-10-30T02:52:21.991Z,59.13
2022-10-30T02:54:51.370Z,63.78
2022-10-30T02:57:20.753Z,62.10
2022-10-30T02:59:48.116Z,55.05
2022-10-30T03:02:18.302Z,48.75
2022-10-30T03:04:48.389Z,43.83
2022-10-30T03:09:43.241Z,43.72
2022-10-30T03:12:15.132Z,41.75
2022-10-30T03:14:49.772Z,42.95
2022-10-30T03:17:18.164Z,42.22
2022-10-30T03:19:46.501Z,50.38
2022-10-30T03:22:14.769Z,41.22
2022-10-30T03:24:42.209Z,39.60
2022-10-30T03:27:09.608Z,35.45
2022-10-30T03:29:38.504Z,38.28
2022-10-30T03:32:10.848Z,41.20
2022-10-30T03:34:46.192Z,31.05
2022-10-30T03:37:15.193Z,32.13
2022-10-30T03:39:47.030Z,31.13
2022-10-30T03:42:15.901Z,32.67
2022-10-30T03:44:43.557Z,33.72
2022-10-30T03:47:13.645Z,31.38
2022-10-30T03:49:44.533Z,32.22
2022-10-30T03:52:23.938Z,34.55
2022-10-30T03:54:52.560Z,37.60
2022-10-30T03:57:20.680Z,36.13
2022-10-30T04:00:14.564Z,34.80
2022-10-30T04:02:50.590Z,38.47
2022-10-30T04:05:20.719Z,35.88
2022-10-30T04:07:49.394Z,38.22
2022-10-30T04:10:23.794Z,33.00
2022-10-30T04:12:58.453Z,32.60
2022-10-30T04:15:26.517Z,29.42
2022-10-30T04:18:02.927Z,30.23
2022-10-30T04:20:32.121Z,30.55
2022-10-30T04:23:02.216Z,26.95
2022-10-30T04:25:30.970Z,33.33
2022-10-30T04:28:00.982Z,31.77
2022-10-30T04:30:31.377Z,29.33
2022-10-30T04:32:59.301Z,32.65
2022-10-30T04:35:33.849Z,31.30
2022-10-30T04:38:11.649Z,30.75
2022-10-30T04:40:43.591Z,30.58
2022-10-30T04:43:13.088Z,40.17
2022-10-30T04:45:41.321Z,35.45
2022-10-30T04:48:15.929Z,34.25
2022-10-30T04:50:44.633Z,35.95
2022-10-30T04:53:23.427Z,40.00
2022-10-30T04:55:57.323Z,36.65
2022-10-30T04:58:28.776Z,42.38
2022-10-30T05:01:07.509Z,41.05
2022-10-30T05:03:39.538Z,43.00
2022-10-30T05:06:31.506Z,35.42
2022-10-30T05:09:00.170Z,37.53
2022-10-30T05:11:33.833Z,36.95
2022-10-30T05:14:01.793Z,38.13
2022-10-30T05:16:29.278Z,42.63
2022-10-30T05:19:01.466Z,39.67
2022-10-30T05:21:29.404Z,44.72
2022-10-30T05:23:59.166Z,38.63
2022-10-30T05:26:27.618Z,35.78
2022-10-30T05:28:55.165Z,36.83
2022-10-30T05:31:23.166Z,36.13
2022-10-30T05:34:07.506Z,38.50
2022-10-30T05:36:37.755Z,32.33
2022-10-30T05:39:06.729Z,37.63
2022-10-30T05:41:44.894Z,35.45
2022-10-30T05:44:13.409Z,34.83
2022-10-30T05:46:45.155Z,40.00
2022-10-30T05:49:27.581Z,36.55
2022-10-30T05:51:56.434Z,41.40
2022-10-30T05:54:23.517Z,40.50
2022-10-30T05:57:04.525Z,35.53
2022-10-30T05:59:35.694Z,34.70
2022-10-30T06:02:07.256Z,37.30
2022-10-30T06:04:37.745Z,39.20
2022-10-30T06:07:17.000Z,43.15
2022-10-30T06:09:45.639Z,39.95
2022-10-30T06:12:38.953Z,38.30
2022-10-30T06:15:30.989Z,36.97
2022-10-30T06:18:20.058Z,31.27
2022-10-30T06:21:01.883Z,35.35
2022-10-30T06:23:48.875Z,35.30
2022-10-30T06:26:42.460Z,41.67
2022-10-30T06:29:21.450Z,37.97
2022-10-30T06:31:49.131Z,38.00
2022-10-30T06:34:19.617Z,34.95
2022-10-30T06:36:55.648Z,35.85
2022-10-30T06:39:29.804Z,32.90
2022-10-30T06:42:22.573Z,33.47
2022-10-30T06:45:21.321Z,32.38
2022-10-30T06:47:51.548Z,30.48
2022-10-30T06:50:24.359Z,32.03
2022-10-30T06:52:55.397Z,30.92
2022-10-30T06:55:27.271Z,40.40
2022-10-30T06:58:24.075Z,29.20
2022-10-30T07:01:06.888Z,27.55
2022-10-30T07:04:00.329Z,27.60
2022-10-30T07:06:27.422Z,27.17
2022-10-30T07:08:56.759Z,28.25
2022-10-30T07:11:24.306Z,27.98
2022-10-30T07:14:20.288Z,29.92
2022-10-30T07:16:55.258Z,24.65
2022-10-30T07:19:26.199Z,22.70
2022-10-30T07:22:02.840Z,23.17
2022-10-30T07:24:31.170Z,23.52
2022-10-30T07:27:17.218Z,25.05
2022-10-30T07:30:11.074Z,30.80
2022-10-30T07:33:06.990Z,33.85
2022-10-30T07:36:00.169Z,23.13
2022-10-30T07:38:51.180Z,22.30
2022-10-30T07:41:37.846Z,42.75
2022-10-30T07:44:26.600Z,23.15
2022-10-30T08:24:07.807Z,17.20
2022-10-30T09:01:44.310Z,22.73
2022-10-30T09:07:07.647Z,17.75
2022-10-30T09:09:56.162Z,15.52
2022-10-30T09:12:24.980Z,15.52
2022-10-30T09:14:52.376Z,18.42
2022-10-30T09:17:19.144Z,16.15
2022-10-30T09:22:21.792Z,17.83
2022-10-30T09:24:49.822Z,20.33
2022-10-30T09:27:46.105Z,21.75
2022-10-30T09:30:13.982Z,17.27
2022-10-30T09:32:55.026Z,21.38
2022-10-30T09:35:26.301Z,19.17
2022-10-30T09:37:53.272Z,23.80
2022-10-30T09:40:23.780Z,18.10
2022-10-30T09:42:52.108Z,17.83
2022-10-30T09:46:02.844Z,14.60
2022-10-30T09:48:49.265Z,26.23
2022-10-30T09:51:57.747Z,20.75
2022-10-30T09:54:36.936Z,34.17
2022-10-30T09:57:24.439Z,55.22
2022-10-30T10:00:03.646Z,22.23
2022-10-30T10:02:34.288Z,21.50
2022-10-30T10:05:11.980Z,18.30
2022-10-30T10:08:17.280Z,17.75
2022-10-30T10:11:14.519Z,16.83
2022-10-30T10:14:00.033Z,23.58
2022-10-30T10:16:33.650Z,15.05
2022-10-30T10:19:21.271Z,16.35
2022-10-30T10:21:57.925Z,18.65
2022-10-30T10:24:44.419Z,14.98
2022-10-30T10:27:23.297Z,14.70
2022-10-30T10:30:12.286Z,18.65
2022-10-30T10:32:47.784Z,16.63
2022-10-30T10:38:22.312Z,17.77
2022-10-30T10:40:51.655Z,15.63
2022-10-30T10:43:29.093Z,18.63
2022-10-30T10:46:17.460Z,20.63
2022-10-30T10:48:53.098Z,19.33
2022-10-30T10:51:22.965Z,20.23
2022-10-30T10:53:58.734Z,23.25
2022-10-30T10:56:34.285Z,17.48
2022-10-30T10:59:27.024Z,17.92
2022-10-30T11:02:13.597Z,19.38
2022-10-30T11:04:43.499Z,23.73
2022-10-30T11:07:29.493Z,18.17
2022-10-30T11:09:57.638Z,14.82
2022-10-30T11:12:36.273Z,15.52
2022-10-30T11:15:27.379Z,15.23
2022-10-30T11:18:04.042Z,17.08
2022-10-30T11:20:56.791Z,20.30
2022-10-30T11:23:41.569Z,16.20
2022-10-30T11:26:17.663Z,18.88
2022-10-30T11:28:48.756Z,15.43
2022-10-30T11:31:24.298Z,14.20
2022-10-30T11:36:24.094Z,19.38
2022-10-30T11:38:52.067Z,17.02
2022-10-30T11:41:20.405Z,14.55
2022-10-30T11:43:49.191Z,21.38
2022-10-30T11:46:22.403Z,16.83
2022-10-30T11:48:54.860Z,18.90
2022-10-30T11:51:48.519Z,26.65
2022-10-30T11:54:21.170Z,25.20
2022-10-30T11:56:51.778Z,18.33
2022-10-30T11:59:21.913Z,51.53
2022-10-30T12:02:03.019Z,59.42
2022-10-30T12:04:32.840Z,57.65
2022-10-30T12:07:14.664Z,23.63
2022-10-30T12:09:43.765Z,42.05
2022-10-30T12:12:21.840Z,53.78
2022-10-30T12:14:48.942Z,45.17
2022-10-30T12:17:17.920Z,35.30
2022-10-30T12:19:54.070Z,19.52
2022-10-30T12:22:31.173Z,53.17
2022-10-30T12:25:02.516Z,32.47
2022-10-30T12:27:32.210Z,81.78
2022-10-30T12:30:09.746Z,79.75
2022-10-30T12:32:55.307Z,40.75
2022-10-30T12:35:36.377Z,27.55
2022-10-30T12:38:25.895Z,41.25
2022-10-30T12:41:14.714Z,20.42
2022-10-30T12:43:45.809Z,30.08
2022-10-30T12:46:27.688Z,17.23
2022-10-30T12:52:19.308Z,17.30
2022-10-30T12:55:13.574Z,23.60
2022-10-30T13:00:15.795Z,24.13
2022-10-30T13:02:48.254Z,23.45
2022-10-30T13:05:41.772Z,24.95
2022-10-30T13:08:33.435Z,20.40
2022-10-30T13:11:11.667Z,19.08
2022-10-30T13:13:46.902Z,21.13
2022-10-30T13:16:27.629Z,19.50
2022-10-30T13:19:01.754Z,32.58
2022-10-30T13:21:34.507Z,22.90
2022-10-30T13:24:28.891Z,16.35
2022-10-30T13:27:07.144Z,18.50
2022-10-30T13:29:41.291Z,16.40
2022-10-30T13:32:33.418Z,20.15
2022-10-30T13:35:20.148Z,15.85
2022-10-30T13:38:25.797Z,16.88
2022-10-30T13:41:13.581Z,15.93
2022-10-30T13:43:51.878Z,19.83
2022-10-30T13:46:33.537Z,19.00
2022-10-30T13:49:19.615Z,21.80
2022-10-30T13:52:06.517Z,23.15
2022-10-30T13:54:42.462Z,22.17
2022-10-30T13:57:18.953Z,17.30
2022-10-30T13:59:59.155Z,17.00
2022-10-30T14:02:32.971Z,21.55
2022-10-30T14:05:43.299Z,20.35
2022-10-30T14:08:26.103Z,28.13
2022-10-30T14:11:00.383Z,14.05
2022-10-30T14:14:15.543Z,19.02
2022-10-30T14:16:44.742Z,19.13
2022-10-30T14:19:13.285Z,15.70
2022-10-30T14:21:44.449Z,15.55
2022-10-30T14:24:29.486Z,17.17
2022-10-30T14:27:05.842Z,16.08
2022-10-30T14:29:38.254Z,14.35
2022-10-30T14:32:14.477Z,20.23
2022-10-30T14:34:50.593Z,14.73
2022-10-30T14:37:37.712Z,15.27
2022-10-30T14:40:41.634Z,15.25
2022-10-30T14:43:24.958Z,14.10
2022-10-30T14:46:00.285Z,17.48
2022-10-30T14:48:49.680Z,21.92
2022-10-30T14:51:38.067Z,17.08
2022-10-30T14:56:52.577Z,17.65
2022-10-30T14:59:19.452Z,16.83
2022-10-30T15:01:49.891Z,15.90
2022-10-30T15:04:29.648Z,14.20
2022-10-30T15:07:08.452Z,14.40
2022-10-30T15:09:41.304Z,18.55
2022-10-30T15:12:22.371Z,17.85
2022-10-30T15:15:03.875Z,17.23
2022-10-30T15:17:30.820Z,13.18
2022-10-30T15:20:01.092Z,15.57
2022-10-30T15:22:30.027Z,18.33
2022-10-30T15:24:58.308Z,17.30
2022-10-30T15:27:26.325Z,13.75
2022-10-30T15:29:56.719Z,14.43
2022-10-30T15:32:24.675Z,17.40
2022-10-30T15:35:03.066Z,13.88
2022-10-30T15:37:31.203Z,14.70
2022-10-30T15:40:25.392Z,13.60
2022-10-30T15:45:23.387Z,15.52
2022-10-30T15:48:05.468Z,14.05
2022-10-30T15:50:34.324Z,15.80
2022-10-30T15:53:01.780Z,18.50
2022-10-30T15:55:31.526Z,24.17
2022-10-30T15:58:13.129Z,16.33
2022-10-30T16:00:40.503Z,14.52
2022-10-30T16:03:16.757Z,20.33
2022-10-30T16:05:43.870Z,16.10
2022-10-30T16:08:24.505Z,20.48
2022-10-30T16:10:55.863Z,18.50
2022-10-30T16:13:28.004Z,16.52
2022-10-30T16:15:55.291Z,16.00
2022-10-30T16:18:35.721Z,15.07
2022-10-30T16:21:06.542Z,19.52
2022-10-30T16:23:46.966Z,24.98
2022-10-30T16:26:37.731Z,27.10
2022-10-30T16:29:13.872Z,22.73
2022-10-30T16:31:43.356Z,24.80
2022-10-30T16:34:21.933Z,28.05
2022-10-30T16:36:50.115Z,24.13
2022-10-30T16:39:19.008Z,21.17
2022-10-30T16:41:46.097Z,21.92
2022-10-30T16:44:12.887Z,19.88
2022-10-30T16:46:58.147Z,19.65
2022-10-30T16:49:29.132Z,24.38
2022-10-30T16:52:02.372Z,21.45
2022-10-30T16:54:32.821Z,25.65
2022-10-30T16:57:02.469Z,24.55
2022-10-30T16:59:38.349Z,18.48
2022-10-30T17:02:17.187Z,19.23
2022-10-30T17:04:47.444Z,20.95
2022-10-30T17:07:20.488Z,19.17
2022-10-30T17:09:49.267Z,16.27
2022-10-30T17:12:19.316Z,22.45
2022-10-30T17:17:33.118Z,22.48
2022-10-30T17:20:03.358Z,24.70
2022-10-30T17:22:31.068Z,14.80
2022-10-30T17:24:59.083Z,17.42
2022-10-30T17:27:25.965Z,17.38
2022-10-30T17:29:53.608Z,17.95
2022-10-30T17:32:25.653Z,21.75
2022-10-30T17:35:16.978Z,15.85
2022-10-30T17:37:43.924Z,16.48
2022-10-30T17:40:12.611Z,16.67
2022-10-30T17:42:40.218Z,18.40
2022-10-30T17:45:10.773Z,18.10
2022-10-30T17:47:38.018Z,16.42
2022-10-30T17:50:05.872Z,11.93
2022-10-30T17:52:33.340Z,20.08
2022-10-30T17:55:01.959Z,12.55
2022-10-30T17:57:29.258Z,14.50
2022-10-30T17:59:56.096Z,13.05
2022-10-30T18:02:23.594Z,13.00
2022-10-30T18:04:52.499Z,15.65
2022-10-30T18:07:19.521Z,13.80
2022-10-30T18:09:46.377Z,14.07
2022-10-30T18:12:15.745Z,14.25
2022-10-30T18:14:46.256Z,13.70
2022-10-30T18:17:13.724Z,12.38
2022-10-30T18:19:40.548Z,14.43
2022-10-30T18:22:09.285Z,13.27
2022-10-30T18:24:36.577Z,13.82
2022-10-30T18:27:03.485Z,15.63
2022-10-30T18:29:30.330Z,13.15
2022-10-30T18:31:57.214Z,15.25
2022-10-30T18:34:24.038Z,13.32
2022-10-30T18:36:50.918Z,16.27
2022-10-30T18:39:17.859Z,19.45
2022-10-30T18:41:46.429Z,14.63
2022-10-30T18:44:17.877Z,14.95
2022-10-30T18:46:45.909Z,14.90
2022-10-30T18:49:12.957Z,15.55
2022-10-30T18:51:40.074Z,15.23
2022-10-30T18:54:16.733Z,15.05
2022-10-30T18:56:43.828Z,14.27
2022-10-30T18:59:10.974Z,14.77
2022-10-30T19:01:38.610Z,14.88
2022-10-30T19:04:11.706Z,14.57
2022-10-30T19:06:38.960Z,14.70
2022-10-30T19:09:06.379Z,11.90
2022-10-30T19:11:33.869Z,11.85
2022-10-30T19:14:01.066Z,15.82
2022-10-30T19:16:28.329Z,14.73
2022-10-30T19:18:55.554Z,15.30
2022-10-30T19:21:25.376Z,15.18
2022-10-30T19:23:54.504Z,21.00
2022-10-30T19:26:21.687Z,18.20
2022-10-30T19:28:48.711Z,12.90
2022-10-30T19:31:18.162Z,21.00
2022-10-30T19:33:45.983Z,22.00
2022-10-30T19:36:36.566Z,23.20
2022-10-30T19:39:16.782Z,26.40
2022-10-30T19:41:44.174Z,22.10
2022-10-30T19:44:11.222Z,25.67
2022-10-30T19:46:38.254Z,20.83
2022-10-30T19:49:22.428Z,19.15
2022-10-30T19:51:49.369Z,28.08
2022-10-30T19:54:16.174Z,21.52
2022-10-30T19:56:44.003Z,28.63
2022-10-30T19:59:14.294Z,22.25
2022-10-30T20:01:41.878Z,21.25
2022-10-30T20:04:09.503Z,18.52
2022-10-30T20:06:46.417Z,23.08
2022-10-30T20:09:23.351Z,18.05
2022-10-30T20:11:54.296Z,19.02
2022-10-30T20:14:22.654Z,17.98
2022-10-30T20:16:50.390Z,18.17
2022-10-30T20:19:28.550Z,15.50
2022-10-30T20:22:05.705Z,18.23
2022-10-30T20:24:33.193Z,15.43
2022-10-30T20:27:00.749Z,20.58
2022-10-30T20:29:28.381Z,22.58
2022-10-30T20:31:56.173Z,15.48
2022-10-30T20:34:25.138Z,21.60
2022-10-30T20:36:52.385Z,22.40
2022-10-30T20:39:22.269Z,16.52
2022-10-30T20:41:52.137Z,22.73
2022-10-30T20:44:19.585Z,20.80
2022-10-30T20:46:48.270Z,20.35
2022-10-30T20:49:19.550Z,22.48
2022-10-30T20:51:48.253Z,20.40
2022-10-30T20:54:16.183Z,21.58
2022-10-30T20:56:43.505Z,21.67
2022-10-30T20:59:20.080Z,20.58
2022-10-30T21:01:49.979Z,21.08
2022-10-30T21:06:47.605Z,16.60
2022-10-30T21:09:20.882Z,14.15
2022-10-30T21:11:55.399Z,16.00
2022-10-30T21:14:30.389Z,18.08
2022-10-30T21:17:05.149Z,19.35
2022-10-30T21:19:35.063Z,14.15
2022-10-30T21:22:07.603Z,13.43
2022-10-30T21:24:45.172Z,13.05
2022-10-30T21:27:14.275Z,15.50
2022-10-30T21:29:46.288Z,18.60
2022-10-30T21:32:14.959Z,17.67
2022-10-30T21:34:49.325Z,26.80
2022-10-30T21:37:25.894Z,16.98
2022-10-30T21:39:56.390Z,14.70
2022-10-30T21:45:06.477Z,15.05
2022-10-30T21:47:36.352Z,12.20
2022-10-30T21:50:07.622Z,11.80
2022-10-30T21:52:40.018Z,9.80
2022-10-30T21:55:10.258Z,12.18
2022-10-30T21:57:37.443Z,10.85
2022-10-30T22:00:06.163Z,12.82
2022-10-30T22:02:40.496Z,11.82
2022-10-30T22:05:10.659Z,10.35
2022-10-30T22:10:16.097Z,12.00
2022-10-30T22:12:49.795Z,17.58
2022-10-30T22:19:48.536Z,14.05
2022-10-30T22:22:19.958Z,15.02
2022-10-30T22:24:48.845Z,17.25
2022-10-30T22:27:26.960Z,13.85
2022-10-30T22:29:57.262Z,15.25
2022-10-30T22:32:37.395Z,15.23
2022-10-30T22:35:11.286Z,19.88
2022-10-30T22:37:38.999Z,14.75
2022-10-30T22:40:12.104Z,18.63
2022-10-30T22:42:42.694Z,24.45
2022-10-30T22:45:10.175Z,24.20
2022-10-30T22:47:39.645Z,21.88
2022-10-30T22:50:15.541Z,36.00
2022-10-30T22:52:42.661Z,17.20
2022-10-30T22:55:16.239Z,14.55
2022-10-30T22:57:43.620Z,21.02
2022-10-30T23:00:14.056Z,13.50
2022-10-30T23:02:44.008Z,15.27
2022-10-30T23:05:11.499Z,16.00
2022-10-30T23:07:39.275Z,16.00
2022-10-30T23:10:07.371Z,18.17
2022-10-30T23:12:35.835Z,20.77
2022-10-30T23:15:05.372Z,17.45
2022-10-30T23:17:32.971Z,15.20
2022-10-30T23:20:00.084Z,15.57
2022-10-30T23:22:30.456Z,17.33
2022-10-30T23:24:57.983Z,18.73
2022-10-30T23:27:25.253Z,18.70
2022-10-30T23:29:52.353Z,17.40
2022-10-30T23:32:19.505Z,18.35
2022-10-30T23:34:46.674Z,14.65
2022-10-30T23:37:13.789Z,15.13
2022-10-30T23:39:43.121Z,10.18
2022-10-30T23:42:12.989Z,20.00
2022-10-30T23:44:40.134Z,13.00
2022-10-30T23:47:09.255Z,16.00
2022-10-30T23:49:36.409Z,9.77
2022-10-30T23:52:03.564Z,10.63
2022-10-30T23:54:30.714Z,12.57
2022-10-30T23:56:59.828Z,9.10
2022-10-30T23:59:26.989Z,12.65
